sensor_id;sensor_type;location;lat;lon;timestamp;pressure;altitude;pressure_sealevel;temperature;humidity
967;BME280;56108;48.730;9.304;2022-07-23T00:01:39;97712.63;;;23.56;55.25
967;BME280;56108;48.730;9.304;2022-07-23T00:03:50;97706.34;;;23.56;55.55
967;BME280;56108;48.730;9.304;2022-07-23T00:05:59;97688.34;;;23.40;55.68
967;BME280;56108;48.730;9.304;2022-07-23T00:08:13;97688.22;;;23.33;55.23
967;BME280;56108;48.730;9.304;2022-07-23T00:10:21;97681.22;;;23.24;55.25
967;BME280;56108;48.730;9.304;2022-07-23T00:12:29;97683.53;;;23.27;54.96
967;BME280;56108;48.730;9.304;2022-07-23T00:14:40;97679.69;;;23.22;55.53
967;BME280;56108;48.730;9.304;2022-07-23T00:16:48;97672.59;;;23.21;55.37
967;BME280;56108;48.730;9.304;2022-07-23T00:18:59;97667.81;;;23.23;54.25
967;BME280;56108;48.730;9.304;2022-07-23T00:21:08;97654.72;;;23.26;54.09
967;BME280;56108;48.730;9.304;2022-07-23T00:23:17;97647.78;;;23.24;53.83
967;BME280;56108;48.730;9.304;2022-07-23T00:25:26;97657.81;;;23.23;53.14
967;BME280;56108;48.730;9.304;2022-07-23T00:27:36;97666.50;;;23.33;52.04
967;BME280;56108;48.730;9.304;2022-07-23T00:29:44;97663.16;;;23.31;51.98
967;BME280;56108;48.730;9.304;2022-07-23T00:31:52;97665.84;;;23.31;51.94
967;BME280;56108;48.730;9.304;2022-07-23T00:34:04;97667.25;;;23.27;52.57
967;BME280;56108;48.730;9.304;2022-07-23T00:36:13;97656.22;;;23.29;52.32
967;BME280;56108;48.730;9.304;2022-07-23T00:38:22;97664.81;;;23.32;52.56
967;BME280;56108;48.730;9.304;2022-07-23T00:40:30;97658.34;;;23.33;52.42
967;BME280;56108;48.730;9.304;2022-07-23T00:42:39;97645.81;;;23.32;53.81
967;BME280;56108;48.730;9.304;2022-07-23T00:44:47;97636.16;;;23.15;54.58
967;BME280;56108;48.730;9.304;2022-07-23T00:46:57;97637.75;;;23.09;53.69
967;BME280;56108;48.730;9.304;2022-07-23T00:49:10;97630.09;;;23.13;53.22
967;BME280;56108;48.730;9.304;2022-07-23T00:51:19;97632.41;;;23.16;52.72
967;BME280;56108;48.730;9.304;2022-07-23T00:53:27;97618.00;;;23.15;52.55
967;BME280;56108;48.730;9.304;2022-07-23T00:55:36;97623.44;;;23.15;52.17
967;BME280;56108;48.730;9.304;2022-07-23T00:57:45;97600.88;;;23.15;52.46
967;BME280;56108;48.730;9.304;2022-07-23T00:59:54;97594.31;;;23.09;52.34
967;BME280;56108;48.730;9.304;2022-07-23T01:02:02;97644.22;;;23.08;52.46
967;BME280;56108;48.730;9.304;2022-07-23T01:04:13;97631.25;;;22.96;53.01
967;BME280;56108;48.730;9.304;2022-07-23T01:06:22;97638.44;;;22.88;53.36
967;BME280;56108;48.730;9.304;2022-07-23T01:08:31;97644.03;;;22.87;53.01
967;BME280;56108;48.730;9.304;2022-07-23T01:10:39;97641.47;;;22.85;53.27
967;BME280;56108;48.730;9.304;2022-07-23T01:12:48;97633.44;;;22.77;53.35
967;BME280;56108;48.730;9.304;2022-07-23T01:14:57;97625.75;;;22.81;53.31
967;BME280;56108;48.730;9.304;2022-07-23T01:17:06;97622.34;;;22.64;54.11
967;BME280;56108;48.730;9.304;2022-07-23T01:19:18;97620.91;;;22.53;54.85
967;BME280;56108;48.730;9.304;2022-07-23T01:21:26;97625.28;;;22.54;54.59
967;BME280;56108;48.730;9.304;2022-07-23T01:23:39;97611.81;;;22.46;54.87
967;BME280;56108;48.730;9.304;2022-07-23T01:25:48;97606.13;;;22.56;54.54
967;BME280;56108;48.730;9.304;2022-07-23T01:27:58;97598.66;;;22.58;54.76
967;BME280;56108;48.730;9.304;2022-07-23T01:30:07;97595.34;;;22.48;55.12
967;BME280;56108;48.730;9.304;2022-07-23T01:32:16;97599.72;;;22.49;55.78
967;BME280;56108;48.730;9.304;2022-07-23T01:34:26;97614.03;;;22.43;55.66
967;BME280;56108;48.730;9.304;2022-07-23T01:36:35;97602.00;;;22.45;55.95
967;BME280;56108;48.730;9.304;2022-07-23T01:38:49;97594.09;;;22.35;56.29
967;BME280;56108;48.730;9.304;2022-07-23T01:40:59;97580.22;;;22.30;56.74
967;BME280;56108;48.730;9.304;2022-07-23T01:43:09;97563.22;;;22.36;56.36
967;BME280;56108;48.730;9.304;2022-07-23T01:45:19;97548.44;;;22.39;56.42
967;BME280;56108;48.730;9.304;2022-07-23T01:47:29;97544.31;;;22.28;56.66
967;BME280;56108;48.730;9.304;2022-07-23T01:49:38;97590.94;;;22.24;57.44
967;BME280;56108;48.730;9.304;2022-07-23T01:51:52;97616.25;;;22.16;59.46
967;BME280;56108;48.730;9.304;2022-07-23T01:54:21;97607.81;;;22.11;58.34
967;BME280;56108;48.730;9.304;2022-07-23T01:56:29;97616.25;;;22.08;59.11
967;BME280;56108;48.730;9.304;2022-07-23T01:58:37;97608.47;;;22.13;59.13
967;BME280;56108;48.730;9.304;2022-07-23T02:00:45;97611.34;;;22.11;59.35
967;BME280;56108;48.730;9.304;2022-07-23T02:02:54;97609.00;;;22.08;59.49
967;BME280;56108;48.730;9.304;2022-07-23T02:05:05;97598.22;;;21.92;59.82
967;BME280;56108;48.730;9.304;2022-07-23T02:07:14;97596.75;;;21.81;60.22
967;BME280;56108;48.730;9.304;2022-07-23T02:09:28;97598.69;;;21.73;60.38
967;BME280;56108;48.730;9.304;2022-07-23T02:11:36;97589.22;;;21.69;60.67
967;BME280;56108;48.730;9.304;2022-07-23T02:13:46;97589.09;;;21.54;60.96
967;BME280;56108;48.730;9.304;2022-07-23T02:15:54;97598.78;;;21.48;61.43
967;BME280;56108;48.730;9.304;2022-07-23T02:18:03;97599.63;;;21.49;61.16
967;BME280;56108;48.730;9.304;2022-07-23T02:20:13;97612.44;;;21.55;61.86
967;BME280;56108;48.730;9.304;2022-07-23T02:22:21;97618.94;;;21.46;61.84
967;BME280;56108;48.730;9.304;2022-07-23T02:24:32;97622.84;;;21.35;63.07
967;BME280;56108;48.730;9.304;2022-07-23T02:26:40;97629.97;;;21.36;63.05
967;BME280;56108;48.730;9.304;2022-07-23T02:28:49;97635.69;;;21.41;63.51
967;BME280;56108;48.730;9.304;2022-07-23T02:30:59;97649.72;;;21.28;63.47
967;BME280;56108;48.730;9.304;2022-07-23T02:33:08;97662.09;;;21.23;63.68
967;BME280;56108;48.730;9.304;2022-07-23T02:35:18;97661.91;;;21.24;62.79
967;BME280;56108;48.730;9.304;2022-07-23T02:37:27;97675.63;;;21.23;64.16
967;BME280;56108;48.730;9.304;2022-07-23T02:39:39;97688.81;;;21.18;64.07
967;BME280;56108;48.730;9.304;2022-07-23T02:41:47;97682.91;;;21.22;64.58
967;BME280;56108;48.730;9.304;2022-07-23T02:43:56;97688.81;;;21.18;65.26
967;BME280;56108;48.730;9.304;2022-07-23T02:46:07;97686.81;;;21.11;65.09
967;BME280;56108;48.730;9.304;2022-07-23T02:48:18;97692.75;;;21.15;64.73
967;BME280;56108;48.730;9.304;2022-07-23T02:50:26;97695.25;;;21.17;64.69
967;BME280;56108;48.730;9.304;2022-07-23T02:52:36;97698.47;;;21.12;65.20
967;BME280;56108;48.730;9.304;2022-07-23T02:54:47;97697.13;;;21.00;65.17
967;BME280;56108;48.730;9.304;2022-07-23T02:56:55;97692.53;;;21.08;64.84
967;BME280;56108;48.730;9.304;2022-07-23T02:59:04;97693.56;;;21.07;64.25
967;BME280;56108;48.730;9.304;2022-07-23T03:01:12;97698.16;;;21.15;63.87
967;BME280;56108;48.730;9.304;2022-07-23T03:03:24;97690.03;;;21.15;63.83
967;BME280;56108;48.730;9.304;2022-07-23T03:05:34;97699.84;;;21.16;63.84
967;BME280;56108;48.730;9.304;2022-07-23T03:07:43;97710.66;;;21.08;63.94
967;BME280;56108;48.730;9.304;2022-07-23T03:09:53;97702.19;;;21.03;64.27
967;BME280;56108;48.730;9.304;2022-07-23T03:12:02;97707.47;;;21.04;64.51
967;BME280;56108;48.730;9.304;2022-07-23T03:14:17;97713.72;;;21.05;64.18
967;BME280;56108;48.730;9.304;2022-07-23T03:16:25;97712.69;;;20.98;64.98
967;BME280;56108;48.730;9.304;2022-07-23T03:18:33;97709.16;;;20.89;65.27
967;BME280;56108;48.730;9.304;2022-07-23T03:20:45;97711.16;;;20.87;65.66
967;BME280;56108;48.730;9.304;2022-07-23T03:22:52;97708.94;;;20.82;65.45
967;BME280;56108;48.730;9.304;2022-07-23T03:25:04;97707.25;;;20.81;65.92
967;BME280;56108;48.730;9.304;2022-07-23T03:27:14;97707.25;;;20.81;65.62
967;BME280;56108;48.730;9.304;2022-07-23T03:29:22;97715.06;;;20.84;66.05
967;BME280;56108;48.730;9.304;2022-07-23T03:31:30;97710.31;;;20.78;65.31
967;BME280;56108;48.730;9.304;2022-07-23T03:33:39;97702.84;;;20.72;65.97
967;BME280;56108;48.730;9.304;2022-07-23T03:35:47;97697.09;;;20.67;66.85
967;BME280;56108;48.730;9.304;2022-07-23T03:38:02;97697.81;;;20.69;67.23
967;BME280;56108;48.730;9.304;2022-07-23T03:40:14;97695.28;;;20.84;66.96
967;BME280;56108;48.730;9.304;2022-07-23T03:42:22;97691.03;;;20.65;67.14
967;BME280;56108;48.730;9.304;2022-07-23T03:44:31;97690.34;;;20.55;67.84
967;BME280;56108;48.730;9.304;2022-07-23T03:46:40;97691.00;;;20.49;67.84
967;BME280;56108;48.730;9.304;2022-07-23T03:48:49;97694.84;;;20.38;68.31
967;BME280;56108;48.730;9.304;2022-07-23T03:51:03;97690.13;;;20.32;68.38
967;BME280;56108;48.730;9.304;2022-07-23T03:53:11;97689.59;;;20.28;68.82
967;BME280;56108;48.730;9.304;2022-07-23T03:55:22;97695.66;;;20.30;68.96
967;BME280;56108;48.730;9.304;2022-07-23T03:57:31;97698.38;;;20.30;69.56
967;BME280;56108;48.730;9.304;2022-07-23T03:59:39;97704.78;;;20.21;69.62
967;BME280;56108;48.730;9.304;2022-07-23T04:01:47;97696.81;;;20.20;69.71
967;BME280;56108;48.730;9.304;2022-07-23T04:03:56;97701.22;;;20.21;69.29
967;BME280;56108;48.730;9.304;2022-07-23T04:06:05;97709.16;;;20.30;68.28
967;BME280;56108;48.730;9.304;2022-07-23T04:08:14;97716.13;;;20.33;68.74
967;BME280;56108;48.730;9.304;2022-07-23T04:10:30;97722.38;;;20.33;68.83
967;BME280;56108;48.730;9.304;2022-07-23T04:12:40;97716.97;;;20.33;70.14
967;BME280;56108;48.730;9.304;2022-07-23T04:14:48;97723.56;;;20.39;69.76
967;BME280;56108;48.730;9.304;2022-07-23T04:16:59;97714.75;;;20.29;69.64
967;BME280;56108;48.730;9.304;2022-07-23T04:19:07;97707.19;;;20.41;68.92
967;BME280;56108;48.730;9.304;2022-07-23T04:21:28;97710.97;;;20.64;67.87
967;BME280;56108;48.730;9.304;2022-07-23T04:23:37;97719.25;;;20.71;68.06
967;BME280;56108;48.730;9.304;2022-07-23T04:25:48;97718.44;;;20.87;67.13
967;BME280;56108;48.730;9.304;2022-07-23T04:27:56;97716.72;;;21.18;66.06
967;BME280;56108;48.730;9.304;2022-07-23T04:30:05;97718.25;;;21.61;64.92
967;BME280;56108;48.730;9.304;2022-07-23T04:32:14;97712.84;;;22.01;63.37
967;BME280;56108;48.730;9.304;2022-07-23T04:34:23;97719.78;;;22.43;62.40
967;BME280;56108;48.730;9.304;2022-07-23T04:36:32;97718.94;;;22.42;61.56
967;BME280;56108;48.730;9.304;2022-07-23T04:38:40;97721.09;;;22.07;62.69
967;BME280;56108;48.730;9.304;2022-07-23T04:40:57;97723.75;;;21.76;64.14
967;BME280;56108;48.730;9.304;2022-07-23T04:43:17;97715.38;;;22.10;64.01
967;BME280;56108;48.730;9.304;2022-07-23T04:45:27;97711.63;;;22.20;63.31
967;BME280;56108;48.730;9.304;2022-07-23T04:47:35;97714.59;;;22.33;63.20
967;BME280;56108;48.730;9.304;2022-07-23T04:49:44;97705.34;;;22.50;62.55
967;BME280;56108;48.730;9.304;2022-07-23T04:51:52;97705.53;;;22.72;62.11
967;BME280;56108;48.730;9.304;2022-07-23T04:54:00;97706.28;;;22.88;61.18
967;BME280;56108;48.730;9.304;2022-07-23T04:56:09;97714.88;;;22.69;62.15
967;BME280;56108;48.730;9.304;2022-07-23T04:58:20;97724.44;;;22.88;61.59
967;BME280;56108;48.730;9.304;2022-07-23T05:00:29;97726.78;;;23.14;60.85
967;BME280;56108;48.730;9.304;2022-07-23T05:02:38;97724.53;;;23.17;60.39
967;BME280;56108;48.730;9.304;2022-07-23T05:04:47;97723.22;;;22.90;61.81
967;BME280;56108;48.730;9.304;2022-07-23T05:06:55;97715.56;;;23.84;59.57
967;BME280;56108;48.730;9.304;2022-07-23T05:09:04;97726.34;;;24.73;55.95
967;BME280;56108;48.730;9.304;2022-07-23T05:11:12;97731.31;;;26.18;52.10
967;BME280;56108;48.730;9.304;2022-07-23T05:13:24;97747.56;;;26.33;50.82
967;BME280;56108;48.730;9.304;2022-07-23T05:15:32;97744.09;;;26.11;51.75
967;BME280;56108;48.730;9.304;2022-07-23T05:17:41;97735.69;;;26.12;52.28
967;BME280;56108;48.730;9.304;2022-07-23T05:19:53;97736.09;;;25.25;53.88
967;BME280;56108;48.730;9.304;2022-07-23T05:22:06;97730.31;;;24.92;55.44
967;BME280;56108;48.730;9.304;2022-07-23T05:24:14;97731.53;;;25.54;53.76
967;BME280;56108;48.730;9.304;2022-07-23T05:26:23;97736.06;;;25.46;54.33
967;BME280;56108;48.730;9.304;2022-07-23T05:28:36;97727.19;;;24.73;55.76
967;BME280;56108;48.730;9.304;2022-07-23T05:30:45;97727.94;;;24.16;57.80
967;BME280;56108;48.730;9.304;2022-07-23T05:32:55;97724.06;;;23.52;60.84
967;BME280;56108;48.730;9.304;2022-07-23T05:35:05;97734.19;;;23.20;62.08
967;BME280;56108;48.730;9.304;2022-07-23T05:37:19;97738.78;;;23.20;63.10
967;BME280;56108;48.730;9.304;2022-07-23T05:39:27;97741.19;;;23.52;62.33
967;BME280;56108;48.730;9.304;2022-07-23T05:41:36;97740.97;;;23.77;62.03
967;BME280;56108;48.730;9.304;2022-07-23T05:43:50;97743.53;;;24.08;60.58
967;BME280;56108;48.730;9.304;2022-07-23T05:45:58;97741.63;;;24.08;60.39
967;BME280;56108;48.730;9.304;2022-07-23T05:48:07;97754.28;;;24.31;59.84
967;BME280;56108;48.730;9.304;2022-07-23T05:50:24;97746.31;;;24.29;60.04
967;BME280;56108;48.730;9.304;2022-07-23T05:52:43;97740.31;;;24.19;60.63
967;BME280;56108;48.730;9.304;2022-07-23T05:55:11;97750.63;;;24.09;60.51
967;BME280;56108;48.730;9.304;2022-07-23T05:57:22;97759.19;;;23.91;60.96
967;BME280;56108;48.730;9.304;2022-07-23T05:59:33;97756.09;;;23.56;62.60
967;BME280;56108;48.730;9.304;2022-07-23T06:01:41;97754.81;;;22.83;64.88
967;BME280;56108;48.730;9.304;2022-07-23T06:03:53;97742.78;;;23.09;64.90
967;BME280;56108;48.730;9.304;2022-07-23T06:06:08;97749.69;;;23.11;65.61
967;BME280;56108;48.730;9.304;2022-07-23T06:08:16;97750.84;;;22.94;65.39
967;BME280;56108;48.730;9.304;2022-07-23T06:10:25;97746.91;;;22.74;65.52
967;BME280;56108;48.730;9.304;2022-07-23T06:12:33;97736.97;;;22.66;66.75
967;BME280;56108;48.730;9.304;2022-07-23T06:14:46;97736.56;;;22.69;66.02
967;BME280;56108;48.730;9.304;2022-07-23T06:16:54;97740.41;;;22.83;64.70
967;BME280;56108;48.730;9.304;2022-07-23T06:19:04;97737.72;;;22.75;65.68
967;BME280;56108;48.730;9.304;2022-07-23T06:21:13;97732.41;;;22.89;66.48
967;BME280;56108;48.730;9.304;2022-07-23T06:23:41;97737.25;;;23.40;64.75
967;BME280;56108;48.730;9.304;2022-07-23T06:25:49;97732.66;;;23.93;63.53
967;BME280;56108;48.730;9.304;2022-07-23T06:27:57;97732.84;;;24.93;61.21
967;BME280;56108;48.730;9.304;2022-07-23T06:30:10;97728.94;;;25.45;59.17
967;BME280;56108;48.730;9.304;2022-07-23T06:32:22;97730.28;;;25.56;57.66
967;BME280;56108;48.730;9.304;2022-07-23T06:34:30;97728.25;;;27.02;53.45
967;BME280;56108;48.730;9.304;2022-07-23T06:36:39;97757.31;;;27.10;51.71
967;BME280;56108;48.730;9.304;2022-07-23T06:38:48;97749.28;;;27.01;53.12
967;BME280;56108;48.730;9.304;2022-07-23T06:40:56;97755.84;;;28.06;51.78
967;BME280;56108;48.730;9.304;2022-07-23T06:43:04;97775.69;;;28.60;47.44
967;BME280;56108;48.730;9.304;2022-07-23T06:45:17;97786.72;;;28.47;47.28
967;BME280;56108;48.730;9.304;2022-07-23T06:47:26;97787.03;;;27.86;47.24
967;BME280;56108;48.730;9.304;2022-07-23T06:49:34;97776.38;;;26.96;50.08
967;BME280;56108;48.730;9.304;2022-07-23T06:51:43;97779.38;;;26.19;53.09
967;BME280;56108;48.730;9.304;2022-07-23T06:53:51;97769.94;;;25.59;56.08
967;BME280;56108;48.730;9.304;2022-07-23T06:56:00;97772.31;;;26.31;54.54
967;BME280;56108;48.730;9.304;2022-07-23T06:58:10;97780.88;;;25.65;55.77
967;BME280;56108;48.730;9.304;2022-07-23T07:00:21;97772.94;;;26.68;53.23
967;BME280;56108;48.730;9.304;2022-07-23T07:02:31;97788.97;;;26.97;51.46
967;BME280;56108;48.730;9.304;2022-07-23T07:04:39;97793.06;;;27.21;49.55
967;BME280;56108;48.730;9.304;2022-07-23T07:06:48;97792.47;;;26.78;50.63
967;BME280;56108;48.730;9.304;2022-07-23T07:08:56;97792.44;;;27.26;51.84
967;BME280;56108;48.730;9.304;2022-07-23T07:11:04;97797.56;;;26.88;52.13
967;BME280;56108;48.730;9.304;2022-07-23T07:13:13;97806.25;;;26.57;52.11
967;BME280;56108;48.730;9.304;2022-07-23T07:15:24;97814.97;;;25.76;50.74
967;BME280;56108;48.730;9.304;2022-07-23T07:17:32;97815.63;;;25.35;52.28
967;BME280;56108;48.730;9.304;2022-07-23T07:19:42;97830.91;;;25.58;51.16
967;BME280;56108;48.730;9.304;2022-07-23T07:21:50;97833.00;;;25.56;50.53
967;BME280;56108;48.730;9.304;2022-07-23T07:23:58;97832.22;;;25.19;50.34
967;BME280;56108;48.730;9.304;2022-07-23T07:26:06;97817.50;;;24.98;51.92
967;BME280;56108;48.730;9.304;2022-07-23T07:28:14;97822.16;;;24.83;52.34
967;BME280;56108;48.730;9.304;2022-07-23T07:30:25;97819.09;;;24.57;52.37
967;BME280;56108;48.730;9.304;2022-07-23T07:32:38;97816.94;;;24.52;52.79
967;BME280;56108;48.730;9.304;2022-07-23T07:35:03;97819.84;;;24.51;53.54
967;BME280;56108;48.730;9.304;2022-07-23T07:37:12;97812.44;;;24.30;53.04
967;BME280;56108;48.730;9.304;2022-07-23T07:39:20;97807.84;;;24.45;53.87
967;BME280;56108;48.730;9.304;2022-07-23T07:41:29;97820.47;;;25.40;51.28
967;BME280;56108;48.730;9.304;2022-07-23T07:43:37;97822.97;;;25.63;50.53
967;BME280;56108;48.730;9.304;2022-07-23T07:45:48;97811.94;;;24.70;52.04
967;BME280;56108;48.730;9.304;2022-07-23T07:47:57;97816.84;;;24.60;51.78
967;BME280;56108;48.730;9.304;2022-07-23T07:50:06;97833.13;;;25.69;50.44
967;BME280;56108;48.730;9.304;2022-07-23T07:52:16;97838.53;;;26.46;47.88
967;BME280;56108;48.730;9.304;2022-07-23T07:54:24;97845.47;;;26.90;46.14
967;BME280;56108;48.730;9.304;2022-07-23T07:56:32;97859.13;;;28.64;43.79
967;BME280;56108;48.730;9.304;2022-07-23T07:58:40;97888.69;;;30.83;38.80
967;BME280;56108;48.730;9.304;2022-07-23T08:00:51;97907.22;;;32.15;35.05
967;BME280;56108;48.730;9.304;2022-07-23T08:03:00;97905.19;;;31.02;36.69
967;BME280;56108;48.730;9.304;2022-07-23T08:05:09;97904.72;;;32.13;34.45
967;BME280;56108;48.730;9.304;2022-07-23T08:07:18;97921.97;;;33.66;33.56
967;BME280;56108;48.730;9.304;2022-07-23T08:09:26;97921.41;;;33.41;32.71
967;BME280;56108;48.730;9.304;2022-07-23T08:11:35;97918.31;;;31.66;35.48
967;BME280;56108;48.730;9.304;2022-07-23T08:13:43;97917.69;;;31.16;37.43
967;BME280;56108;48.730;9.304;2022-07-23T08:15:54;97921.59;;;30.72;37.72
967;BME280;56108;48.730;9.304;2022-07-23T08:18:03;97917.09;;;30.52;38.83
967;BME280;56108;48.730;9.304;2022-07-23T08:20:14;97906.81;;;30.23;39.99
967;BME280;56108;48.730;9.304;2022-07-23T08:22:23;97916.44;;;30.32;39.91
967;BME280;56108;48.730;9.304;2022-07-23T08:24:32;97918.03;;;30.64;39.60
967;BME280;56108;48.730;9.304;2022-07-23T08:26:40;97914.25;;;31.21;39.03
967;BME280;56108;48.730;9.304;2022-07-23T08:28:48;97907.84;;;31.45;37.79
967;BME280;56108;48.730;9.304;2022-07-23T08:30:59;97920.63;;;31.03;39.08
967;BME280;56108;48.730;9.304;2022-07-23T08:33:09;97911.59;;;30.02;40.78
967;BME280;56108;48.730;9.304;2022-07-23T08:35:36;97888.44;;;29.22;43.96
967;BME280;56108;48.730;9.304;2022-07-23T08:37:46;97885.88;;;28.55;43.66
967;BME280;56108;48.730;9.304;2022-07-23T08:39:53;97895.31;;;27.67;44.00
967;BME280;56108;48.730;9.304;2022-07-23T08:42:02;97884.69;;;27.17;47.35
967;BME280;56108;48.730;9.304;2022-07-23T08:44:09;97871.75;;;27.59;47.28
967;BME280;56108;48.730;9.304;2022-07-23T08:46:21;97875.41;;;27.73;46.16
967;BME280;56108;48.730;9.304;2022-07-23T08:48:31;97879.16;;;28.45;46.40
967;BME280;56108;48.730;9.304;2022-07-23T08:50:45;97886.75;;;28.49;43.82
967;BME280;56108;48.730;9.304;2022-07-23T08:52:53;97884.47;;;29.11;44.39
967;BME280;56108;48.730;9.304;2022-07-23T08:55:04;97889.34;;;30.10;41.78
967;BME280;56108;48.730;9.304;2022-07-23T08:57:13;97887.00;;;31.01;40.42
967;BME280;56108;48.730;9.304;2022-07-23T08:59:21;97891.44;;;30.83;39.40
967;BME280;56108;48.730;9.304;2022-07-23T09:01:34;97892.06;;;30.85;40.61
967;BME280;56108;48.730;9.304;2022-07-23T09:03:42;97893.56;;;31.18;38.90
967;BME280;56108;48.730;9.304;2022-07-23T09:05:50;97894.88;;;30.79;39.69
967;BME280;56108;48.730;9.304;2022-07-23T09:08:10;97888.56;;;30.03;41.79
967;BME280;56108;48.730;9.304;2022-07-23T09:10:18;97909.75;;;30.46;38.61
967;BME280;56108;48.730;9.304;2022-07-23T09:12:31;97906.44;;;30.62;39.08
967;BME280;56108;48.730;9.304;2022-07-23T09:14:41;97906.41;;;30.44;38.83
967;BME280;56108;48.730;9.304;2022-07-23T09:16:54;97896.56;;;30.05;40.09
967;BME280;56108;48.730;9.304;2022-07-23T09:19:04;97903.72;;;31.17;38.72
967;BME280;56108;48.730;9.304;2022-07-23T09:21:18;97896.19;;;32.03;36.40
967;BME280;56108;48.730;9.304;2022-07-23T09:23:37;97901.63;;;33.04;35.63
967;BME280;56108;48.730;9.304;2022-07-23T09:25:45;97903.31;;;33.05;34.30
967;BME280;56108;48.730;9.304;2022-07-23T09:27:54;97905.25;;;33.44;33.49
967;BME280;56108;48.730;9.304;2022-07-23T09:30:05;97903.00;;;32.89;35.38
967;BME280;56108;48.730;9.304;2022-07-23T09:32:16;97901.91;;;32.90;34.59
967;BME280;56108;48.730;9.304;2022-07-23T09:34:27;97907.44;;;33.42;34.74
967;BME280;56108;48.730;9.304;2022-07-23T09:36:38;97911.50;;;34.81;31.84
967;BME280;56108;48.730;9.304;2022-07-23T09:38:50;97908.34;;;34.72;30.97
967;BME280;56108;48.730;9.304;2022-07-23T09:41:08;97907.03;;;34.41;31.01
967;BME280;56108;48.730;9.304;2022-07-23T09:43:26;97908.16;;;35.40;30.15
967;BME280;56108;48.730;9.304;2022-07-23T09:45:39;97920.13;;;35.01;29.17
967;BME280;56108;48.730;9.304;2022-07-23T09:47:50;97920.25;;;34.06;28.47
967;BME280;56108;48.730;9.304;2022-07-23T09:50:00;97920.69;;;33.57;30.02
967;BME280;56108;48.730;9.304;2022-07-23T09:52:10;97911.00;;;32.67;32.85
967;BME280;56108;48.730;9.304;2022-07-23T09:54:27;97906.19;;;30.64;34.57
967;BME280;56108;48.730;9.304;2022-07-23T09:56:38;97897.88;;;32.04;33.13
967;BME280;56108;48.730;9.304;2022-07-23T09:58:49;97900.25;;;30.67;34.87
967;BME280;56108;48.730;9.304;2022-07-23T10:01:08;97889.88;;;32.26;33.45
967;BME280;56108;48.730;9.304;2022-07-23T10:03:20;97894.28;;;33.09;33.27
967;BME280;56108;48.730;9.304;2022-07-23T10:05:47;97896.59;;;33.53;33.06
967;BME280;56108;48.730;9.304;2022-07-23T10:08:18;97895.78;;;33.00;30.88
967;BME280;56108;48.730;9.304;2022-07-23T10:10:47;97892.69;;;33.65;30.75
967;BME280;56108;48.730;9.304;2022-07-23T10:13:22;97891.81;;;32.72;33.13
967;BME280;56108;48.730;9.304;2022-07-23T10:15:43;97890.09;;;31.41;34.76
967;BME280;56108;48.730;9.304;2022-07-23T10:17:51;97895.06;;;32.69;33.08
967;BME280;56108;48.730;9.304;2022-07-23T10:20:03;97890.44;;;34.08;31.86
967;BME280;56108;48.730;9.304;2022-07-23T10:22:17;97893.72;;;33.36;31.76
967;BME280;56108;48.730;9.304;2022-07-23T10:24:58;97891.47;;;33.44;32.33
967;BME280;56108;48.730;9.304;2022-07-23T10:27:22;97898.41;;;34.04;31.64
967;BME280;56108;48.730;9.304;2022-07-23T10:29:42;97891.56;;;33.78;31.62
967;BME280;56108;48.730;9.304;2022-07-23T10:31:59;97889.47;;;33.57;31.61
967;BME280;56108;48.730;9.304;2022-07-23T10:34:16;97878.03;;;33.36;33.68
967;BME280;56108;48.730;9.304;2022-07-23T10:36:39;97892.28;;;32.22;33.41
967;BME280;56108;48.730;9.304;2022-07-23T10:38:52;97891.06;;;32.07;35.25
967;BME280;56108;48.730;9.304;2022-07-23T10:41:04;97880.56;;;29.77;36.03
967;BME280;56108;48.730;9.304;2022-07-23T10:43:15;97872.41;;;29.25;37.32
967;BME280;56108;48.730;9.304;2022-07-23T10:45:28;97873.91;;;29.53;36.87
967;BME280;56108;48.730;9.304;2022-07-23T10:47:37;97868.75;;;30.70;36.14
967;BME280;56108;48.730;9.304;2022-07-23T10:49:51;97865.69;;;32.75;37.49
967;BME280;56108;48.730;9.304;2022-07-23T10:52:25;97882.09;;;32.23;32.31
967;BME280;56108;48.730;9.304;2022-07-23T10:54:33;97878.31;;;32.59;33.67
967;BME280;56108;48.730;9.304;2022-07-23T10:57:05;97871.91;;;33.06;33.14
967;BME280;56108;48.730;9.304;2022-07-23T10:59:14;97870.84;;;32.95;34.08
967;BME280;56108;48.730;9.304;2022-07-23T11:01:33;97871.63;;;33.76;33.99
967;BME280;56108;48.730;9.304;2022-07-23T11:03:56;97877.13;;;33.59;33.35
967;BME280;56108;48.730;9.304;2022-07-23T11:06:05;97874.06;;;33.89;33.57
967;BME280;56108;48.730;9.304;2022-07-23T11:08:18;97884.50;;;34.33;31.26
967;BME280;56108;48.730;9.304;2022-07-23T11:10:34;97884.22;;;33.55;33.00
967;BME280;56108;48.730;9.304;2022-07-23T11:12:42;97874.03;;;34.01;33.38
967;BME280;56108;48.730;9.304;2022-07-23T11:15:09;97867.59;;;33.95;32.56
967;BME280;56108;48.730;9.304;2022-07-23T11:17:19;97858.53;;;33.26;34.18
967;BME280;56108;48.730;9.304;2022-07-23T11:19:27;97854.91;;;32.85;36.31
967;BME280;56108;48.730;9.304;2022-07-23T11:24:05;97853.72;;;32.46;33.43
967;BME280;56108;48.730;9.304;2022-07-23T11:26:41;97854.06;;;31.31;36.34
967;BME280;56108;48.730;9.304;2022-07-23T11:28:51;97855.75;;;31.13;35.85
967;BME280;56108;48.730;9.304;2022-07-23T11:30:59;97853.47;;;30.12;36.65
967;BME280;56108;48.730;9.304;2022-07-23T11:33:24;97845.50;;;30.72;38.77
967;BME280;56108;48.730;9.304;2022-07-23T11:35:34;97847.06;;;30.98;36.83
967;BME280;56108;48.730;9.304;2022-07-23T11:37:49;97847.38;;;31.08;37.21
967;BME280;56108;48.730;9.304;2022-07-23T11:40:03;97843.59;;;31.21;38.99
967;BME280;56108;48.730;9.304;2022-07-23T11:42:18;97852.03;;;31.68;35.15
967;BME280;56108;48.730;9.304;2022-07-23T11:44:26;97859.84;;;31.71;34.38
967;BME280;56108;48.730;9.304;2022-07-23T11:46:35;97853.72;;;32.22;36.54
967;BME280;56108;48.730;9.304;2022-07-23T11:48:43;97860.22;;;31.44;34.83
967;BME280;56108;48.730;9.304;2022-07-23T11:50:52;97851.19;;;31.67;35.59
967;BME280;56108;48.730;9.304;2022-07-23T11:53:01;97866.66;;;30.47;34.06
967;BME280;56108;48.730;9.304;2022-07-23T11:55:12;97861.22;;;30.83;35.15
967;BME280;56108;48.730;9.304;2022-07-23T11:57:24;97858.25;;;30.41;35.51